Edith Weston, United Kingdom
Current Conditions -  °F | °C
As of 9:50 PM on Monday 22 Dec 2014 (Local Time) from EGXT Reporting Station
Overcast Overcast  
Wind Chill: 54°   Ceiling: 1900
Heat Index: 54°   Visibility: 6mi
Dew Point: 48°   Wind: 23mph
Humidity: 82%   Direction: 240°WSW
Pressure: 29.91"   Gusts: NA
Location:  52.64°N, 0.63°W
Report Text: EGXT 222150Z AUTO 24020KT 9999 OVC019/// 12/09 Q1013
Loading
Personal Weather Stations






























Interactive Weather Map New forecast layout! Learn more

10-Day Weather Forecast

Advertisements
Track Severe Weather on mobile